Ranier, Minnesota
Current Conditions -  °F | °C
As of 10:55 PM on Sunday 21 Dec 2014 (Local Time) from KINL Reporting Station
Overcast Overcast  
Wind Chill: 26°   Ceiling: 700
Heat Index: 32°   Visibility: 7mi
Dew Point: 31°   Wind: 6mph
Humidity: 96%   Direction: 130°SE
Pressure: 29.67"   Gusts: NA
Location:  48.61°N, 93.35°W
Report Text: KINL 220455Z AUTO 13005KT 7SM OVC007 00/M01 A2967 RMK AO2 CIG 005V011 SLP063 I1000 T00001006
Loading
Personal Weather Stations






























Interactive Weather Map New forecast layout! Learn more

10-Day Weather Forecast

Advertisements
Track Severe Weather on mobile